Time;durP1;ratioP1;P1;durP2;ratioP2;P2;SDS_P1;SDS_P2;PMS_P1;PMS_P2;Temp;Humidity;BMP_temperature;BMP_pressure;BME280_temperature;BME280_humidity;BME280_pressure;Samples;Min_cycle;Max_cycle;Signal;HPM_P1;HPM_P2
2022/03/23 00:01:47;;;;;;;;;;;;;;;3.23;67.77;100615.41;8277678;28;20000;-70
2022/03/23 00:05:49;;;;;;;;;;;;;;;3.14;68.33;100613.31;8296748;28;20048;-70
2022/03/23 00:09:50;;;;;;;;;;;;;;;3.11;68.44;100609.75;8295850;28;19937;-71
2022/03/23 00:13:58;;;;;;;;;;;;;;;3.07;67.98;100616.44;8294335;28;19925;-71
2022/03/23 00:17:59;;;;;;;;;;;;;;;2.99;69.06;100620.31;8291809;28;19969;-70
2022/03/23 00:22:01;;;;;;;;;;;;;;;2.89;69.58;100620.72;8279377;28;19925;-71
2022/03/23 00:26:02;;;;;;;;;;;;;;;2.91;69.64;100622.53;8285031;28;20345;-71
2022/03/23 00:30:04;;;;;;;;;;;;;;;2.79;69.69;100632.22;8277984;28;19936;-71
2022/03/23 00:34:05;;;;;;;;;;;;;;;2.73;69.49;100624.25;8633942;22;19933;-71
2022/03/23 00:38:07;;;;;;;;;;;;;;;2.71;70.48;100623.31;8295396;28;19929;-71
2022/03/23 00:42:08;;;;;;;;;;;;;;;2.68;70.21;100630.84;8300545;28;19925;-71
2022/03/23 00:46:10;;;;;;;;;;;;;;;2.57;70.16;100632.91;8283482;28;19935;-71
2022/03/23 00:50:11;;;;;;;;;;;;;;;2.50;71.05;100632.53;8306212;28;19936;-71
2022/03/23 00:54:12;;;;;;;;;;;;;;;2.43;71.30;100633.94;8314299;28;19929;-71
2022/03/23 00:58:14;;;;;;;;;;;;;;;2.35;71.34;100631.03;8305605;28;20020;-71
2022/03/23 01:02:16;;;;;;;;;;;;;;;2.38;71.52;100633.72;8306172;28;20471;-71
2022/03/23 01:06:18;;;;;;;;;;;;;;;2.29;71.35;100632.38;8295894;28;19925;-71
2022/03/23 01:10:20;;;;;;;;;;;;;;;2.28;71.80;100630.63;8294062;28;19925;-71
2022/03/23 01:14:23;;;;;;;;;;;;;;;2.19;72.17;100633.63;8306754;28;19932;-71
2022/03/23 01:18:24;;;;;;;;;;;;;;;2.16;71.56;100635.19;8290969;28;19979;-71
2022/03/23 01:22:26;;;;;;;;;;;;;;;2.08;71.93;100640.78;8312552;28;20382;-71
2022/03/23 01:26:28;;;;;;;;;;;;;;;2.03;71.96;100629.44;8311316;28;19985;-71
2022/03/23 01:30:30;;;;;;;;;;;;;;;2.02;72.25;100622.56;8307762;28;19984;-71
2022/03/23 01:34:31;;;;;;;;;;;;;;;2.02;72.12;100626.81;8298159;28;19932;-71
2022/03/23 01:38:32;;;;;;;;;;;;;;;2.05;72.20;100619.28;8316868;28;19968;-71
2022/03/23 01:42:34;;;;;;;;;;;;;;;1.99;71.88;100617.28;8310888;28;19925;-71
2022/03/23 01:46:36;;;;;;;;;;;;;;;2.00;71.76;100619.06;8300913;28;19929;-71
2022/03/23 01:50:37;;;;;;;;;;;;;;;1.92;72.03;100615.22;8312991;28;19925;-71
2022/03/23 01:54:40;;;;;;;;;;;;;;;1.88;72.25;100618.44;8311548;28;20579;-71
2022/03/23 01:58:41;;;;;;;;;;;;;;;1.79;71.94;100615.41;8314557;28;19925;-71
2022/03/23 02:02:43;;;;;;;;;;;;;;;1.75;72.17;100619.50;8315055;28;19968;-71
2022/03/23 02:06:48;;;;;;;;;;;;;;;1.69;72.63;100623.44;8321125;28;20301;-71
2022/03/23 02:10:50;;;;;;;;;;;;;;;1.66;73.15;100613.03;8305627;28;20517;-72
2022/03/23 02:14:51;;;;;;;;;;;;;;;1.63;73.06;100620.56;8321519;28;20297;-71
2022/03/23 02:18:52;;;;;;;;;;;;;;;1.59;72.93;100619.50;8310135;28;20008;-71
2022/03/23 02:22:54;;;;;;;;;;;;;;;1.56;72.86;100629.59;8322009;28;20000;-71
2022/03/23 02:26:56;;;;;;;;;;;;;;;1.53;73.36;100624.34;8295769;28;20328;-71
2022/03/23 02:30:58;;;;;;;;;;;;;;;1.48;72.78;100625.78;8293579;28;19935;-71
2022/03/23 02:35:00;;;;;;;;;;;;;;;1.39;72.87;100623.59;8295351;28;20195;-71
2022/03/23 02:39:02;;;;;;;;;;;;;;;1.30;72.90;100622.28;8314839;28;19932;-71
2022/03/23 02:43:04;;;;;;;;;;;;;;;1.29;73.67;100620.50;8327911;28;19925;-71
2022/03/23 02:47:05;;;;;;;;;;;;;;;1.27;74.12;100629.78;8312171;28;20272;-71
2022/03/23 02:51:07;;;;;;;;;;;;;;;1.19;73.91;100627.69;8320461;28;19921;-71
2022/03/23 03:03:54;;;;;;;;;;;;;;;1.13;73.55;100642.72;8310317;28;20605;-72
2022/03/23 03:12:16;;;;;;;;;;;;;;;0.97;73.88;100644.38;8324660;28;19924;-72
2022/03/23 03:16:18;;;;;;;;;;;;;;;0.90;74.17;100645.75;8301091;28;19983;-71
2022/03/23 03:20:20;;;;;;;;;;;;;;;0.84;74.59;100640.28;8317567;28;19924;-71
2022/03/23 03:24:22;;;;;;;;;;;;;;;0.83;74.54;100648.75;8319396;28;20500;-72
2022/03/23 03:28:24;;;;;;;;;;;;;;;0.78;74.88;100645.94;8318257;28;19960;-71
2022/03/23 03:32:26;;;;;;;;;;;;;;;0.74;75.22;100644.03;8313852;28;19925;-72
2022/03/23 03:36:27;;;;;;;;;;;;;;;0.75;75.17;100652.56;8321239;28;20521;-71
2022/03/23 03:40:28;;;;;;;;;;;;;;;0.76;75.10;100650.09;8321125;28;19925;-71
2022/03/23 03:44:30;;;;;;;;;;;;;;;0.68;74.93;100655.56;8315157;28;19928;-71
2022/03/23 03:48:32;;;;;;;;;;;;;;;0.58;75.17;100661.84;8312627;28;19952;-71
2022/03/23 03:52:34;;;;;;;;;;;;;;;0.51;75.66;100660.63;8320604;28;19925;-71
2022/03/23 03:56:35;;;;;;;;;;;;;;;0.47;76.32;100665.47;8310288;28;19931;-71
2022/03/23 04:00:37;;;;;;;;;;;;;;;0.50;76.42;100663.97;8324726;28;19925;-71
2022/03/23 04:04:38;;;;;;;;;;;;;;;0.53;76.66;100665.81;8321150;28;19971;-71
2022/03/23 04:08:40;;;;;;;;;;;;;;;0.52;76.64;100671.72;8320022;28;19944;-71
2022/03/23 04:12:41;;;;;;;;;;;;;;;0.46;76.27;100667.16;8305614;28;19925;-71
2022/03/23 04:16:43;;;;;;;;;;;;;;;0.40;75.63;100671.03;8304190;28;20020;-71
2022/03/23 04:20:44;;;;;;;;;;;;;;;0.35;76.21;100675.00;8312057;28;19932;-72
2022/03/23 04:24:46;;;;;;;;;;;;;;;0.33;75.96;100669.81;8315061;28;19925;-71
2022/03/23 04:28:47;;;;;;;;;;;;;;;0.26;76.89;100676.25;8320065;28;20012;-71
2022/03/23 04:32:50;;;;;;;;;;;;;;;0.18;77.33;100686.78;8311705;28;19925;-72
2022/03/23 04:36:51;;;;;;;;;;;;;;;0.13;77.82;100686.53;8307723;28;20260;-71
2022/03/23 04:40:53;;;;;;;;;;;;;;;0.13;77.46;100686.53;8325130;28;20004;-71
2022/03/23 04:44:54;;;;;;;;;;;;;;;0.16;77.68;100691.81;8298340;28;19928;-71
2022/03/23 04:48:55;;;;;;;;;;;;;;;0.18;77.20;100702.13;8315705;28;20015;-72
2022/03/23 04:52:57;;;;;;;;;;;;;;;0.17;77.10;100703.78;8317124;28;20027;-72
2022/03/23 04:56:58;;;;;;;;;;;;;;;0.17;77.11;100698.69;8296700;28;20318;-72
2022/03/23 05:00:59;;;;;;;;;;;;;;;0.18;77.29;100702.13;8288327;28;19984;-72
2022/03/23 05:05:01;;;;;;;;;;;;;;;0.16;77.14;100704.59;8310235;28;19925;-72
2022/03/23 05:09:02;;;;;;;;;;;;;;;0.12;77.12;100702.66;8296029;28;20012;-72
2022/03/23 05:13:04;;;;;;;;;;;;;;;0.09;77.18;100707.59;8318127;28;19931;-74
2022/03/23 05:17:05;;;;;;;;;;;;;;;0.06;77.14;100714.19;8308164;28;19936;-72
2022/03/23 05:21:07;;;;;;;;;;;;;;;-0.02;77.63;100708.63;8310589;28;20358;-72
2022/03/23 05:25:08;;;;;;;;;;;;;;;-0.01;78.32;100716.38;8301686;28;19976;-72
2022/03/23 05:29:10;;;;;;;;;;;;;;;-0.05;78.46;100714.44;8313854;28;20040;-72
2022/03/23 05:33:11;;;;;;;;;;;;;;;-0.02;78.36;100713.72;8304936;28;19925;-72
2022/03/23 05:37:13;;;;;;;;;;;;;;;-0.02;77.63;100713.72;8312197;28;19933;-72
2022/03/23 05:41:14;;;;;;;;;;;;;;;-0.02;77.74;100719.72;8318475;28;19943;-72
2022/03/23 05:45:17;;;;;;;;;;;;;;;-0.06;78.15;100722.00;8312443;28;19925;-72
2022/03/23 05:49:18;;;;;;;;;;;;;;;-0.09;78.65;100722.72;8315646;28;20226;-72
2022/03/23 05:53:20;;;;;;;;;;;;;;;-0.06;78.62;100722.00;8315851;28;20020;-72
2022/03/23 05:57:21;;;;;;;;;;;;;;;0.02;79.10;100730.13;8317161;28;19925;-72
2022/03/23 06:01:22;;;;;;;;;;;;;;;0.12;78.51;100732.41;8292813;28;20301;-72
2022/03/23 06:05:24;;;;;;;;;;;;;;;0.22;78.37;100732.19;8317595;28;19928;-72
2022/03/23 06:09:26;;;;;;;;;;;;;;;0.30;77.87;100736.03;8296888;28;20399;-72
2022/03/23 06:13:27;;;;;;;;;;;;;;;0.42;77.87;100735.88;8307418;28;19951;-72
2022/03/23 06:17:29;;;;;;;;;;;;;;;0.56;77.67;100738.44;8294338;28;19964;-72
2022/03/23 06:21:30;;;;;;;;;;;;;;;0.69;77.05;100734.88;8305293;28;19932;-72
2022/03/23 06:25:32;;;;;;;;;;;;;;;0.83;76.63;100739.09;8319385;28;19974;-73
2022/03/23 06:29:33;;;;;;;;;;;;;;;0.99;76.35;100743.38;8314743;28;19925;-72
2022/03/23 06:33:35;;;;;;;;;;;;;;;1.40;75.56;100747.31;8309371;28;19924;-72
2022/03/23 06:37:37;;;;;;;;;;;;;;;2.08;73.89;100744.94;8312350;28;20004;-71
2022/03/23 06:41:38;;;;;;;;;;;;;;;2.67;70.79;100745.34;8302506;28;19925;-71
2022/03/23 06:45:40;;;;;;;;;;;;;;;3.37;68.72;100740.13;8315701;28;19956;-72
2022/03/23 06:49:42;;;;;;;;;;;;;;;3.98;66.40;100742.00;8304884;28;20380;-71
2022/03/23 06:53:44;;;;;;;;;;;;;;;4.20;64.79;100744.69;8313570;28;19929;-71
2022/03/23 06:57:45;;;;;;;;;;;;;;;4.42;64.29;100743.88;8302339;28;19932;-71
2022/03/23 07:01:47;;;;;;;;;;;;;;;4.60;64.45;100751.47;8314662;28;19924;-71
2022/03/23 07:05:48;;;;;;;;;;;;;;;4.72;64.20;100746.84;8306405;28;20035;-71
2022/03/23 07:09:50;;;;;;;;;;;;;;;4.85;63.97;100744.84;8322916;28;19931;-71
2022/03/23 07:13:51;;;;;;;;;;;;;;;5.07;63.05;100753.41;8295014;28;20071;-73
2022/03/23 07:17:52;;;;;;;;;;;;;;;5.33;62.88;100746.69;8315852;28;20023;-72
2022/03/23 07:21:54;;;;;;;;;;;;;;;5.67;61.76;100752.28;8312068;28;19928;-73
2022/03/23 07:25:55;;;;;;;;;;;;;;;6.05;60.94;100750.25;8321864;28;19928;-72
2022/03/23 07:29:57;;;;;;;;;;;;;;;6.47;60.17;100748.31;8302738;28;19929;-73
2022/03/23 07:33:58;;;;;;;;;;;;;;;6.93;58.23;100747.22;8300847;28;19935;-72
2022/03/23 07:38:04;;;;;;;;;;;;;;;7.42;57.80;100743.59;8316291;28;19929;-72
2022/03/23 07:42:05;;;;;;;;;;;;;;;7.84;57.27;100742.22;8323894;28;20013;-73
2022/03/23 07:46:06;;;;;;;;;;;;;;;8.11;56.10;100746.44;8307305;28;20028;-73
2022/03/23 07:50:08;;;;;;;;;;;;;;;8.43;55.90;100745.59;8320353;28;19927;-73
2022/03/23 07:54:10;;;;;;;;;;;;;;;8.76;55.47;100747.28;8319077;28;19925;-72
2022/03/23 07:58:12;;;;;;;;;;;;;;;9.07;54.38;100754.09;8315789;28;19924;-74
2022/03/23 08:02:13;;;;;;;;;;;;;;;9.34;53.77;100754.72;8320743;28;20332;-72
2022/03/23 08:06:14;;;;;;;;;;;;;;;9.67;53.24;100751.09;8309179;28;20482;-73
2022/03/23 08:10:16;;;;;;;;;;;;;;;9.99;52.09;100743.97;8305272;28;20978;-72
2022/03/23 08:14:18;;;;;;;;;;;;;;;10.36;50.96;100744.69;8319900;28;19932;-74
2022/03/23 08:18:21;;;;;;;;;;;;;;;10.76;50.46;100747.13;8307161;28;20351;-73
2022/03/23 08:22:22;;;;;;;;;;;;;;;11.11;48.75;100746.81;8296816;28;20011;-73
2022/03/23 08:26:23;;;;;;;;;;;;;;;11.53;48.27;100746.59;8310421;28;19929;-73
2022/03/23 08:30:26;;;;;;;;;;;;;;;11.82;47.56;100749.56;8307965;28;20036;-74
2022/03/23 08:34:27;;;;;;;;;;;;;;;12.15;47.56;100749.09;8308872;28;20323;-73
2022/03/23 08:38:28;;;;;;;;;;;;;;;12.42;45.89;100742.44;8314202;28;19925;-72
2022/03/23 08:42:30;;;;;;;;;;;;;;;12.78;46.45;100737.56;8313656;28;19925;-72
2022/03/23 08:46:32;;;;;;;;;;;;;;;13.16;45.19;100743.06;8298849;28;19924;-72
2022/03/23 08:50:34;;;;;;;;;;;;;;;13.55;44.85;100736.34;8298303;28;19960;-73
2022/03/23 08:54:35;;;;;;;;;;;;;;;13.79;44.04;100732.97;8308124;28;20019;-72
2022/03/23 08:58:37;;;;;;;;;;;;;;;13.95;43.53;100726.94;8309763;28;20007;-73
2022/03/23 09:02:39;;;;;;;;;;;;;;;14.21;42.88;100729.66;8298892;28;19929;-73
2022/03/23 09:06:40;;;;;;;;;;;;;;;14.37;41.13;100725.34;8309722;28;19991;-73
2022/03/23 09:10:42;;;;;;;;;;;;;;;14.65;42.25;100718.41;8309476;28;20371;-72
2022/03/23 09:14:43;;;;;;;;;;;;;;;14.78;41.00;100715.81;8297998;28;19972;-73
2022/03/23 09:18:45;;;;;;;;;;;;;;;15.04;40.40;100722.75;8303815;28;20024;-73
2022/03/23 09:22:47;;;;;;;;;;;;;;;15.11;39.28;100724.50;8306442;28;20781;-73
2022/03/23 09:26:49;;;;;;;;;;;;;;;15.32;40.64;100718.34;8306976;28;20024;-74
2022/03/23 09:30:50;;;;;;;;;;;;;;;15.67;39.73;100718.25;8308007;28;20039;-73
2022/03/23 09:34:52;;;;;;;;;;;;;;;16.04;39.30;100716.34;8285832;28;19935;-74
2022/03/23 09:38:53;;;;;;;;;;;;;;;16.12;35.71;100713.66;8314746;28;19971;-73
2022/03/23 09:42:55;;;;;;;;;;;;;;;16.33;36.44;100717.03;8303997;28;20300;-74
2022/03/23 09:46:57;;;;;;;;;;;;;;;16.61;36.68;100711.59;8291469;28;19925;-74
2022/03/23 09:50:58;;;;;;;;;;;;;;;16.87;37.09;100714.00;8312266;28;19931;-73
2022/03/23 09:55:00;;;;;;;;;;;;;;;17.25;36.85;100712.81;8307304;28;19951;-73
2022/03/23 09:59:02;;;;;;;;;;;;;;;17.50;35.46;100717.75;8308042;28;20016;-73
2022/03/23 10:03:06;;;;;;;;;;;;;;;17.47;32.61;100717.81;8306601;28;19925;-73
2022/03/23 10:07:11;;;;;;;;;;;;;;;17.73;35.07;100714.88;8307751;28;19987;-73
2022/03/23 10:11:18;;;;;;;;;;;;;;;18.11;34.06;100716.13;8300064;28;20028;-74
2022/03/23 10:15:55;;;;;;;;;;;;;;;18.04;31.34;100707.47;8312505;28;19925;-73
2022/03/23 10:19:56;;;;;;;;;;;;;;;18.18;32.55;100714.31;8242346;28;19940;-73
2022/03/23 10:23:58;;;;;;;;;;;;;;;18.29;30.54;100705.34;8318733;28;19929;-73
2022/03/23 10:27:59;;;;;;;;;;;;;;;18.50;29.44;100712.06;8297056;28;20339;-73
2022/03/23 10:32:10;;;;;;;;;;;;;;;18.61;28.91;100702.22;8309062;28;19935;-73
2022/03/23 10:36:12;;;;;;;;;;;;;;;18.76;28.01;100700.28;8306217;28;20015;-73
2022/03/23 10:40:17;;;;;;;;;;;;;;;18.76;29.24;100692.38;8313062;28;20317;-73
2022/03/23 10:44:18;;;;;;;;;;;;;;;18.76;28.97;100693.25;8304654;28;19921;-73
2022/03/23 10:48:20;;;;;;;;;;;;;;;18.78;27.48;100688.81;8316986;28;19925;-73
2022/03/23 10:52:24;;;;;;;;;;;;;;;18.84;28.55;100675.53;8307668;28;19964;-74
2022/03/23 10:56:38;;;;;;;;;;;;;;;19.11;28.46;100671.56;8307474;28;19973;-73
2022/03/23 11:00:40;;;;;;;;;;;;;;;19.43;28.38;100678.84;8288548;28;20011;-73
2022/03/23 11:04:44;;;;;;;;;;;;;;;19.68;27.45;100673.97;8288434;28;20353;-73
2022/03/23 11:08:46;;;;;;;;;;;;;;;19.75;27.43;100667.69;8310681;28;19924;-73
2022/03/23 11:17:27;;;;;;;;;;;;;;;19.81;27.35;100664.91;8297967;28;19921;-73
2022/03/23 11:21:29;;;;;;;;;;;;;;;19.87;27.52;100656.84;8308688;28;20031;-73
2022/03/23 11:25:30;;;;;;;;;;;;;;;20.01;27.47;100646.00;8305441;28;20429;-73
2022/03/23 11:29:32;;;;;;;;;;;;;;;20.11;26.82;100641.38;8303541;28;19925;-72
2022/03/23 11:33:34;;;;;;;;;;;;;;;20.50;27.57;100635.16;8300681;28;19924;-72
2022/03/23 11:37:37;;;;;;;;;;;;;;;20.62;27.10;100633.09;8311959;28;19992;-73
2022/03/23 11:41:38;;;;;;;;;;;;;;;20.70;26.87;100633.78;8290480;28;20414;-72
2022/03/23 11:45:41;;;;;;;;;;;;;;;20.72;27.01;100624.91;8276893;28;19925;-73
2022/03/23 11:50:01;;;;;;;;;;;;;;;20.75;26.27;100616.91;8307247;28;19925;-73
2022/03/23 11:54:09;;;;;;;;;;;;;;;20.77;25.72;100611.59;8283001;28;20390;-72
2022/03/23 11:58:24;;;;;;;;;;;;;;;20.78;25.61;100608.91;8305079;28;19935;-73
2022/03/23 12:02:39;;;;;;;;;;;;;;;20.84;25.35;100601.75;8298469;28;19929;-73
2022/03/23 12:06:41;;;;;;;;;;;;;;;20.97;25.50;100593.44;8301262;28;19928;-73
2022/03/23 12:10:43;;;;;;;;;;;;;;;20.99;26.27;100588.09;8305149;28;20554;-73
2022/03/23 12:14:44;;;;;;;;;;;;;;;21.08;25.70;100582.56;8276834;28;19937;-74
2022/03/23 12:19:03;;;;;;;;;;;;;;;21.10;25.16;100578.97;8305841;28;19929;-72
2022/03/23 12:23:10;;;;;;;;;;;;;;;21.10;26.05;100571.06;8292372;28;19929;-73
2022/03/23 12:27:27;;;;;;;;;;;;;;;21.27;27.05;100567.09;8297543;28;20229;-72
2022/03/23 12:31:39;;;;;;;;;;;;;;;21.45;25.63;100560.41;8298392;28;19925;-72
2022/03/23 12:35:40;;;;;;;;;;;;;;;21.44;26.40;100556.03;8303558;28;19925;-72
2022/03/23 12:39:51;;;;;;;;;;;;;;;21.37;24.77;100560.63;8282328;28;20318;-72
2022/03/23 12:43:52;;;;;;;;;;;;;;;21.40;26.06;100547.31;8301297;28;19925;-71
2022/03/23 12:47:55;;;;;;;;;;;;;;;21.40;24.93;100550.84;8282151;28;19925;-71
2022/03/23 13:00:43;;;;;;;;;;;;;;;21.54;24.28;100531.88;8294465;28;19935;-71
2022/03/23 13:04:45;;;;;;;;;;;;;;;21.55;24.62;100528.38;8304130;28;19935;-74
2022/03/23 13:08:47;;;;;;;;;;;;;;;21.48;23.84;100523.28;8300022;28;20055;-72
2022/03/23 13:12:49;;;;;;;;;;;;;;;21.54;24.25;100523.97;8293852;28;19925;-71
2022/03/23 13:16:56;;;;;;;;;;;;;;;21.56;24.13;100514.22;8277837;28;19925;-71
2022/03/23 13:20:59;;;;;;;;;;;;;;;21.51;23.51;100508.19;8291837;28;19983;-71
2022/03/23 13:25:08;;;;;;;;;;;;;;;21.61;22.72;100509.66;8283978;28;19925;-72
2022/03/23 13:29:11;;;;;;;;;;;;;;;21.64;23.24;100501.63;8280528;28;20016;-71
2022/03/23 13:33:16;;;;;;;;;;;;;;;21.69;22.53;100489.09;8289912;28;19925;-72
2022/03/23 13:37:19;;;;;;;;;;;;;;;21.82;22.94;100491.38;8307479;28;19925;-71
2022/03/23 13:45:48;;;;;;;;;;;;;;;21.70;22.84;100480.25;8303061;28;20697;-73
2022/03/23 13:49:50;;;;;;;;;;;;;;;21.60;22.33;100485.91;8305016;28;20680;-74
2022/03/23 13:53:54;;;;;;;;;;;;;;;21.53;22.37;100476.44;8314709;28;20027;-73
2022/03/23 13:57:56;;;;;;;;;;;;;;;21.63;21.75;100470.81;8316205;28;20667;-72
2022/03/23 14:01:58;;;;;;;;;;;;;;;21.60;21.51;100467.41;8304733;28;19933;-72
2022/03/23 14:06:04;;;;;;;;;;;;;;;21.58;21.85;100474.53;8306473;28;19935;-72
2022/03/23 14:10:10;;;;;;;;;;;;;;;21.62;22.56;100460.28;8207424;28;59483;-72
2022/03/23 14:14:46;;;;;;;;;;;;;;;21.64;21.42;100459.31;8261207;27;19936;-71
2022/03/23 14:18:48;;;;;;;;;;;;;;;21.50;20.63;100456.25;8247130;27;20376;-71
2022/03/23 14:22:50;;;;;;;;;;;;;;;21.53;21.31;100447.38;8454607;27;19923;-71
2022/03/23 14:26:52;;;;;;;;;;;;;;;21.56;21.35;100445.50;8456659;27;20026;-71
2022/03/23 14:30:58;;;;;;;;;;;;;;;21.64;21.27;100440.81;8452268;27;19927;-70
2022/03/23 14:35:00;;;;;;;;;;;;;;;21.55;19.81;100438.50;8457708;27;19927;-70
2022/03/23 14:39:43;;;;;;;;;;;;;;;21.65;20.62;100439.03;8399574;27;19928;-70
2022/03/23 14:43:47;;;;;;;;;;;;;;;21.76;20.60;100430.75;8431125;28;19932;-70
2022/03/23 14:47:48;;;;;;;;;;;;;;;21.80;20.65;100433.25;8427184;28;19932;-72
2022/03/23 14:51:51;;;;;;;;;;;;;;;21.74;20.95;100420.25;8428640;28;20294;-72
2022/03/23 14:55:54;;;;;;;;;;;;;;;21.73;20.87;100420.31;8431758;28;19997;-72
2022/03/23 14:59:55;;;;;;;;;;;;;;;21.83;21.48;100422.56;8429288;28;19928;-72
2022/03/23 15:03:57;;;;;;;;;;;;;;;21.81;21.21;100403.25;8430338;28;20024;-72
2022/03/23 15:16:39;;;;;;;;;;;;;;;21.77;21.56;100400.75;8433216;28;19932;-74
2022/03/23 15:20:41;;;;;;;;;;;;;;;21.74;21.22;100400.88;8432537;28;20518;-73
2022/03/23 15:24:43;;;;;;;;;;;;;;;21.87;20.87;100391.56;8418474;28;19932;-72
2022/03/23 15:28:44;;;;;;;;;;;;;;;21.84;20.99;100387.25;8431199;28;19957;-72
2022/03/23 15:32:45;;;;;;;;;;;;;;;21.98;21.44;100394.72;8431721;28;19935;-72
2022/03/23 15:36:47;;;;;;;;;;;;;;;22.18;20.20;100389.63;8419873;28;20054;-72
2022/03/23 15:40:48;;;;;;;;;;;;;;;22.48;20.54;100387.63;8371061;28;20047;-71
2022/03/23 15:44:50;;;;;;;;;;;;;;;22.81;20.59;100393.44;8370828;28;20571;-71
2022/03/23 15:48:51;;;;;;;;;;;;;;;23.05;19.76;100381.06;8328011;28;20432;-71
2022/03/23 15:52:53;;;;;;;;;;;;;;;23.16;20.13;100381.50;8315284;28;20008;-71
2022/03/23 15:56:54;;;;;;;;;;;;;;;23.26;20.21;100387.25;8315460;28;19929;-71
2022/03/23 16:00:56;;;;;;;;;;;;;;;23.35;20.45;100381.59;8317366;28;20023;-71
2022/03/23 16:04:57;;;;;;;;;;;;;;;23.60;19.64;100384.13;8342297;28;20036;-71
2022/03/23 16:08:58;;;;;;;;;;;;;;;25.34;18.94;100378.84;8343208;28;19929;-71
2022/03/23 16:13:00;;;;;;;;;;;;;;;27.27;15.76;100378.28;8341979;28;19986;-71
2022/03/23 16:17:03;;;;;;;;;;;;;;;25.99;16.89;100376.44;8339795;28;20368;-72
2022/03/23 16:21:05;;;;;;;;;;;;;;;25.89;17.01;100376.94;8340910;28;20375;-71
2022/03/23 16:25:10;;;;;;;;;;;;;;;25.17;18.87;100377.03;8339874;28;19929;-72
2022/03/23 16:29:11;;;;;;;;;;;;;;;26.00;17.17;100375.50;8341359;28;19937;-71
2022/03/23 16:33:17;;;;;;;;;;;;;;;28.31;15.20;100376.59;8343535;28;20419;-72
2022/03/23 16:37:18;;;;;;;;;;;;;;;29.55;15.52;100370.34;8369469;28;19930;-71
2022/03/23 16:41:36;;;;;;;;;;;;;;;30.08;14.84;100373.88;8396206;28;19934;-72
2022/03/23 16:45:37;;;;;;;;;;;;;;;30.04;14.63;100375.06;8402288;28;19982;-72
2022/03/23 16:49:39;;;;;;;;;;;;;;;28.13;16.76;100373.22;8406792;28;19938;-72
2022/03/23 16:53:40;;;;;;;;;;;;;;;26.74;17.26;100374.16;8404713;28;19943;-72
2022/03/23 16:57:48;;;;;;;;;;;;;;;25.41;19.32;100374.06;8398825;28;19936;-72
2022/03/23 17:01:51;;;;;;;;;;;;;;;22.88;22.00;100379.06;8395599;28;20228;-71
2022/03/23 17:14:33;;;;;;;;;;;;;;;18.98;28.10;100378.72;8407584;28;19928;-71
2022/03/23 17:18:37;;;;;;;;;;;;;;;18.28;29.94;100376.69;8409681;28;19928;-72
2022/03/23 17:22:39;;;;;;;;;;;;;;;17.59;31.83;100379.72;8410105;28;19928;-72
2022/03/23 17:26:41;;;;;;;;;;;;;;;17.07;31.62;100385.81;8408885;28;19932;-72
2022/03/23 17:30:42;;;;;;;;;;;;;;;16.67;32.89;100391.59;8405855;28;19936;-71
2022/03/23 17:34:47;;;;;;;;;;;;;;;16.32;33.42;100387.63;8392036;28;19935;-72
2022/03/23 17:38:48;;;;;;;;;;;;;;;15.94;35.88;100389.81;8409362;28;20043;-71
2022/03/23 17:42:49;;;;;;;;;;;;;;;15.56;36.20;100393.63;8408372;28;19928;-71
2022/03/23 17:47:03;;;;;;;;;;;;;;;15.21;37.11;100393.91;8404495;28;20031;-71
2022/03/23 17:51:04;;;;;;;;;;;;;;;14.88;37.95;100392.38;8409551;28;19928;-72
2022/03/23 17:55:06;;;;;;;;;;;;;;;14.64;38.25;100397.75;8394569;28;19970;-71
2022/03/23 17:59:07;;;;;;;;;;;;;;;14.39;37.91;100400.44;8407095;28;19936;-71
2022/03/23 18:03:09;;;;;;;;;;;;;;;14.18;39.00;100400.47;8383161;28;19932;-71
2022/03/23 18:07:11;;;;;;;;;;;;;;;13.85;40.46;100397.09;8352507;28;19935;-71
2022/03/23 18:11:12;;;;;;;;;;;;;;;13.65;40.21;100400.59;8376531;28;19939;-71
2022/03/23 18:15:15;;;;;;;;;;;;;;;13.46;40.31;100407.53;8368381;28;19929;-71
2022/03/23 18:19:18;;;;;;;;;;;;;;;13.20;42.91;100410.16;8377715;28;19940;-71
2022/03/23 18:23:19;;;;;;;;;;;;;;;12.90;43.84;100416.13;8402451;28;20019;-71
2022/03/23 18:27:21;;;;;;;;;;;;;;;12.55;46.26;100416.00;8365595;28;20474;-73
2022/03/23 18:31:23;;;;;;;;;;;;;;;12.27;47.21;100420.22;8372391;28;19933;-71
2022/03/23 18:35:25;;;;;;;;;;;;;;;12.03;47.42;100432.25;8358722;28;19937;-72
2022/03/23 18:39:27;;;;;;;;;;;;;;;11.85;47.23;100431.22;8376078;28;19936;-71
2022/03/23 18:43:28;;;;;;;;;;;;;;;11.72;47.25;100431.13;8395500;28;19936;-71
2022/03/23 18:47:30;;;;;;;;;;;;;;;11.63;47.13;100430.16;8376930;28;19929;-71
2022/03/23 18:51:33;;;;;;;;;;;;;;;11.52;47.27;100435.31;8379869;28;19936;-71
2022/03/23 18:55:40;;;;;;;;;;;;;;;11.38;47.92;100442.09;8377456;28;20340;-71
2022/03/23 18:59:45;;;;;;;;;;;;;;;11.24;48.84;100443.69;8377245;28;20055;-71
2022/03/23 19:03:46;;;;;;;;;;;;;;;11.11;49.17;100434.91;8396164;28;19934;-71
2022/03/23 19:07:52;;;;;;;;;;;;;;;10.99;49.25;100438.25;8420593;28;20026;-71
2022/03/23 19:11:53;;;;;;;;;;;;;;;10.82;50.91;100442.41;8404971;28;20042;-71
2022/03/23 19:15:55;;;;;;;;;;;;;;;10.65;51.18;100441.31;8384426;28;19932;-71
2022/03/23 19:19:56;;;;;;;;;;;;;;;10.50;51.35;100442.88;8355948;28;20262;-71
2022/03/23 19:23:58;;;;;;;;;;;;;;;10.39;51.89;100440.97;8375160;28;19993;-71
2022/03/23 19:27:59;;;;;;;;;;;;;;;10.28;51.56;100448.66;8378746;28;19936;-72
2022/03/23 19:32:01;;;;;;;;;;;;;;;10.17;50.28;100447.56;8361748;28;20323;-72
2022/03/23 19:36:03;;;;;;;;;;;;;;;10.03;50.14;100444.78;8408370;28;19994;-72
2022/03/23 19:40:05;;;;;;;;;;;;;;;9.92;50.14;100459.31;8402564;28;19939;-72
2022/03/23 19:44:08;;;;;;;;;;;;;;;9.80;50.55;100456.53;8374945;28;19929;-72
2022/03/23 19:48:09;;;;;;;;;;;;;;;9.69;51.74;100465.03;8371401;28;19935;-72
2022/03/23 19:52:11;;;;;;;;;;;;;;;9.52;53.43;100466.47;8394642;28;20602;-72
2022/03/23 19:56:13;;;;;;;;;;;;;;;9.30;54.18;100472.97;8374037;28;19943;-71
2022/03/23 20:00:14;;;;;;;;;;;;;;;9.22;51.10;100477.16;8375960;28;19994;-71
2022/03/23 20:04:16;;;;;;;;;;;;;;;9.28;50.91;100472.06;8371192;28;20412;-70
2022/03/23 20:08:17;;;;;;;;;;;;;;;9.16;54.30;100471.00;8372279;28;19951;-72
2022/03/23 20:12:18;;;;;;;;;;;;;;;9.03;55.06;100475.06;8373642;28;19928;-72
2022/03/23 20:16:21;;;;;;;;;;;;;;;8.99;56.01;100483.63;8377571;28;19939;-71
2022/03/23 20:20:23;;;;;;;;;;;;;;;8.87;56.45;100483.38;8383329;28;20019;-72
2022/03/23 20:24:24;;;;;;;;;;;;;;;8.69;56.79;100484.75;8381273;28;19939;-71
2022/03/23 20:28:26;;;;;;;;;;;;;;;8.56;56.85;100490.50;8387106;28;19936;-71
2022/03/23 20:32:27;;;;;;;;;;;;;;;8.43;56.51;100491.94;8371895;28;19947;-71
2022/03/23 20:36:29;;;;;;;;;;;;;;;8.30;56.67;100484.75;8377052;28;19928;-71
2022/03/23 20:40:31;;;;;;;;;;;;;;;8.18;58.48;100489.63;8373300;28;19932;-71
2022/03/23 20:44:32;;;;;;;;;;;;;;;7.96;57.83;100482.22;8367601;28;20043;-71
2022/03/23 20:48:36;;;;;;;;;;;;;;;7.90;58.92;100490.72;8370278;28;19976;-72
2022/03/23 20:52:38;;;;;;;;;;;;;;;7.76;58.78;100490.38;8371256;28;19963;-71
2022/03/23 20:56:39;;;;;;;;;;;;;;;7.71;59.49;100497.13;8375515;28;20276;-71
2022/03/23 21:00:41;;;;;;;;;;;;;;;7.61;58.26;100502.03;8367285;28;19928;-71
2022/03/23 21:04:43;;;;;;;;;;;;;;;7.48;58.48;100491.38;8370275;28;19940;-71
2022/03/23 21:08:48;;;;;;;;;;;;;;;7.39;59.33;100495.44;8371062;28;19933;-71
2022/03/23 21:12:49;;;;;;;;;;;;;;;7.31;59.75;100492.66;8370244;28;20319;-71
2022/03/23 21:16:51;;;;;;;;;;;;;;;7.19;60.25;100497.50;8367435;28;19928;-71
2022/03/23 21:20:52;;;;;;;;;;;;;;;7.10;60.80;100499.84;8369869;28;20449;-71
2022/03/23 21:24:55;;;;;;;;;;;;;;;7.05;60.78;100504.00;8352341;28;19989;-71
2022/03/23 21:28:58;;;;;;;;;;;;;;;6.92;61.72;100501.06;8364788;28;19929;-71
2022/03/23 21:32:59;;;;;;;;;;;;;;;6.81;61.96;100506.75;8366192;28;19954;-71
2022/03/23 21:37:02;;;;;;;;;;;;;;;6.70;61.83;100501.28;8369469;28;19932;-71
2022/03/23 21:41:04;;;;;;;;;;;;;;;6.60;62.33;100505.31;8369577;28;19928;-72